sensor_id;sensor_type;location;lat;lon;timestamp;pressure;altitude;pressure_sealevel;temperature;humidity
35151;BME280;55720;51.972;4.624;2022-07-29T00:00:07;101853.44;;;15.83;100.00
35151;BME280;55720;51.972;4.624;2022-07-29T00:02:34;101844.31;;;15.83;100.00
35151;BME280;55720;51.972;4.624;2022-07-29T00:04:59;101845.47;;;15.82;100.00
35151;BME280;55720;51.972;4.624;2022-07-29T00:07:25;101839.34;;;15.76;100.00
35151;BME280;55720;51.972;4.624;2022-07-29T00:09:50;101824.56;;;15.72;100.00
35151;BME280;55720;51.972;4.624;2022-07-29T00:12:16;101811.19;;;15.74;100.00
35151;BME280;55720;51.972;4.624;2022-07-29T00:14:42;101803.22;;;15.72;100.00
35151;BME280;55720;51.972;4.624;2022-07-29T00:17:07;101807.75;;;15.77;100.00
35151;BME280;55720;51.972;4.624;2022-07-29T00:19:32;101802.06;;;15.73;100.00
35151;BME280;55720;51.972;4.624;2022-07-29T00:21:59;101794.00;;;15.68;100.00
35151;BME280;55720;51.972;4.624;2022-07-29T00:24:24;101788.47;;;15.68;100.00
35151;BME280;55720;51.972;4.624;2022-07-29T00:26:50;101790.41;;;15.68;100.00
35151;BME280;55720;51.972;4.624;2022-07-29T00:29:15;101788.91;;;15.70;100.00
35151;BME280;55720;51.972;4.624;2022-07-29T00:31:41;101771.38;;;15.66;100.00
35151;BME280;55720;51.972;4.624;2022-07-29T00:34:06;101763.88;;;15.67;100.00
35151;BME280;55720;51.972;4.624;2022-07-29T00:36:51;101757.88;;;15.65;100.00
35151;BME280;55720;51.972;4.624;2022-07-29T00:39:16;101747.50;;;15.62;100.00
35151;BME280;55720;51.972;4.624;2022-07-29T00:41:42;101756.25;;;15.64;100.00
35151;BME280;55720;51.972;4.624;2022-07-29T00:44:07;101746.34;;;15.63;100.00
35151;BME280;55720;51.972;4.624;2022-07-29T00:46:32;101747.50;;;15.62;100.00
35151;BME280;55720;51.972;4.624;2022-07-29T00:48:58;101745.19;;;15.64;100.00
35151;BME280;55720;51.972;4.624;2022-07-29T00:51:25;101746.81;;;15.65;100.00
35151;BME280;55720;51.972;4.624;2022-07-29T00:53:51;101742.66;;;15.59;100.00
35151;BME280;55720;51.972;4.624;2022-07-29T00:56:18;101737.00;;;15.55;100.00
35151;BME280;55720;51.972;4.624;2022-07-29T00:58:45;101727.41;;;15.53;100.00
35151;BME280;55720;51.972;4.624;2022-07-29T01:01:12;101732.00;;;15.49;100.00
35151;BME280;55720;51.972;4.624;2022-07-29T01:03:37;101727.63;;;15.48;100.00
35151;BME280;55720;51.972;4.624;2022-07-29T01:06:03;101716.88;;;15.46;100.00
35151;BME280;55720;51.972;4.624;2022-07-29T01:08:31;101714.81;;;15.43;100.00
35151;BME280;55720;51.972;4.624;2022-07-29T01:10:58;101706.13;;;15.45;100.00
35151;BME280;55720;51.972;4.624;2022-07-29T01:13:24;101693.59;;;15.47;100.00
35151;BME280;55720;51.972;4.624;2022-07-29T01:15:54;101701.31;;;15.42;100.00
35151;BME280;55720;51.972;4.624;2022-07-29T01:18:31;101681.81;;;15.38;100.00
35151;BME280;55720;51.972;4.624;2022-07-29T01:23:48;101663.72;;;15.28;100.00
35151;BME280;55720;51.972;4.624;2022-07-29T01:26:29;101645.25;;;15.20;100.00
35151;BME280;55720;51.972;4.624;2022-07-29T01:29:06;101628.78;;;15.24;100.00
35151;BME280;55720;51.972;4.624;2022-07-29T01:34:11;101620.59;;;15.27;100.00
35151;BME280;55720;51.972;4.624;2022-07-29T01:36:47;101616.56;;;15.25;100.00
35151;BME280;55720;51.972;4.624;2022-07-29T01:39:19;101608.59;;;15.23;100.00
35151;BME280;55720;51.972;4.624;2022-07-29T01:41:57;101593.72;;;15.16;100.00
35151;BME280;55720;51.972;4.624;2022-07-29T01:44:34;101577.00;;;15.12;100.00
35151;BME280;55720;51.972;4.624;2022-07-29T01:47:05;101562.38;;;15.12;100.00
35151;BME280;55720;51.972;4.624;2022-07-29T01:49:36;101555.34;;;15.14;100.00
35151;BME280;55720;51.972;4.624;2022-07-29T01:52:11;101541.75;;;15.09;100.00
35151;BME280;55720;51.972;4.624;2022-07-29T01:54:49;101528.03;;;15.13;100.00
35151;BME280;55720;51.972;4.624;2022-07-29T01:57:18;101518.03;;;15.08;100.00
35151;BME280;55720;51.972;4.624;2022-07-29T01:59:47;101503.00;;;15.09;100.00
35151;BME280;55720;51.972;4.624;2022-07-29T02:02:15;101507.41;;;15.10;100.00
35151;BME280;55720;51.972;4.624;2022-07-29T02:04:42;101503.13;;;15.13;100.00
35151;BME280;55720;51.972;4.624;2022-07-29T02:07:12;101508.56;;;15.09;100.00
35151;BME280;55720;51.972;4.624;2022-07-29T02:09:40;101501.44;;;15.08;100.00
35151;BME280;55720;51.972;4.624;2022-07-29T02:12:07;101491.84;;;15.06;100.00
35151;BME280;55720;51.972;4.624;2022-07-29T02:14:37;101485.38;;;15.02;100.00
35151;BME280;55720;51.972;4.624;2022-07-29T02:17:03;101474.47;;;14.93;100.00
35151;BME280;55720;51.972;4.624;2022-07-29T02:19:31;101472.72;;;14.89;100.00
35151;BME280;55720;51.972;4.624;2022-07-29T02:21:57;101458.47;;;14.87;100.00
35151;BME280;55720;51.972;4.624;2022-07-29T02:24:24;101450.94;;;14.87;100.00
35151;BME280;55720;51.972;4.624;2022-07-29T02:26:51;101447.84;;;14.89;100.00
35151;BME280;55720;51.972;4.624;2022-07-29T02:29:23;101444.38;;;14.92;100.00
35151;BME280;55720;51.972;4.624;2022-07-29T02:31:51;101443.13;;;14.89;100.00
35151;BME280;55720;51.972;4.624;2022-07-29T02:34:19;101447.03;;;14.88;100.00
35151;BME280;55720;51.972;4.624;2022-07-29T02:36:46;101456.13;;;14.89;100.00
35151;BME280;55720;51.972;4.624;2022-07-29T02:39:14;101452.44;;;14.97;100.00
35151;BME280;55720;51.972;4.624;2022-07-29T02:41:43;101456.03;;;14.97;100.00
35151;BME280;55720;51.972;4.624;2022-07-29T02:44:15;101455.34;;;15.00;100.00
35151;BME280;55720;51.972;4.624;2022-07-29T02:47:13;101453.94;;;15.06;100.00
35151;BME280;55720;51.972;4.624;2022-07-29T02:55:31;101455.56;;;14.95;100.00
35151;BME280;55720;51.972;4.624;2022-07-29T02:58:03;101447.72;;;14.97;100.00
35151;BME280;55720;51.972;4.624;2022-07-29T03:00:35;101456.25;;;14.92;100.00
35151;BME280;55720;51.972;4.624;2022-07-29T03:03:05;101452.13;;;14.86;100.00
35151;BME280;55720;51.972;4.624;2022-07-29T03:05:32;101453.97;;;14.82;100.00
35151;BME280;55720;51.972;4.624;2022-07-29T03:08:01;101445.56;;;14.78;100.00
35151;BME280;55720;51.972;4.624;2022-07-29T03:10:28;101440.13;;;14.70;100.00
35151;BME280;55720;51.972;4.624;2022-07-29T03:12:55;101436.56;;;14.69;100.00
35151;BME280;55720;51.972;4.624;2022-07-29T03:15:21;101438.41;;;14.65;100.00
35151;BME280;55720;51.972;4.624;2022-07-29T03:17:47;101425.03;;;14.67;100.00
35151;BME280;55720;51.972;4.624;2022-07-29T03:20:15;101418.25;;;14.65;100.00
35151;BME280;55720;51.972;4.624;2022-07-29T03:22:42;101414.56;;;14.73;100.00
35151;BME280;55720;51.972;4.624;2022-07-29T03:25:10;101410.75;;;14.65;100.00
35151;BME280;55720;51.972;4.624;2022-07-29T03:27:36;101403.16;;;14.62;100.00
35151;BME280;55720;51.972;4.624;2022-07-29T03:30:02;101411.69;;;14.57;100.00
35151;BME280;55720;51.972;4.624;2022-07-29T03:32:27;101402.38;;;14.50;100.00
35151;BME280;55720;51.972;4.624;2022-07-29T03:34:52;101404.78;;;14.51;100.00
35151;BME280;55720;51.972;4.624;2022-07-29T03:37:18;101408.34;;;14.52;100.00
35151;BME280;55720;51.972;4.624;2022-07-29T03:39:43;101408.34;;;14.52;100.00
35151;BME280;55720;51.972;4.624;2022-07-29T03:42:12;101401.88;;;14.48;100.00
35151;BME280;55720;51.972;4.624;2022-07-29T03:44:40;101401.78;;;14.44;100.00
35151;BME280;55720;51.972;4.624;2022-07-29T03:47:08;101405.34;;;14.45;100.00
35151;BME280;55720;51.972;4.624;2022-07-29T03:49:36;101396.25;;;14.44;100.00
35151;BME280;55720;51.972;4.624;2022-07-29T03:52:03;101399.72;;;14.41;100.00
35151;BME280;55720;51.972;4.624;2022-07-29T03:54:29;101406.16;;;14.45;100.00
35151;BME280;55720;51.972;4.624;2022-07-29T03:56:56;101400.63;;;14.45;100.00
35151;BME280;55720;51.972;4.624;2022-07-29T03:59:24;101394.41;;;14.48;100.00
35151;BME280;55720;51.972;4.624;2022-07-29T04:01:50;101399.81;;;14.45;100.00
35151;BME280;55720;51.972;4.624;2022-07-29T04:04:16;101396.38;;;14.48;100.00
35151;BME280;55720;51.972;4.624;2022-07-29T04:06:43;101403.97;;;14.51;100.00
35151;BME280;55720;51.972;4.624;2022-07-29T04:09:09;101408.34;;;14.52;100.00
35151;BME280;55720;51.972;4.624;2022-07-29T04:11:35;101415.72;;;14.60;100.00
35151;BME280;55720;51.972;4.624;2022-07-29T04:14:01;101420.22;;;14.64;100.00
35151;BME280;55720;51.972;4.624;2022-07-29T04:16:26;101425.03;;;14.67;100.00
35151;BME280;55720;51.972;4.624;2022-07-29T04:18:52;101431.03;;;14.69;100.00
35151;BME280;55720;51.972;4.624;2022-07-29T04:21:17;101437.38;;;14.70;100.00
35151;BME280;55720;51.972;4.624;2022-07-29T04:23:43;101438.97;;;14.71;100.00
35151;BME280;55720;51.972;4.624;2022-07-29T04:26:10;101433.47;;;14.71;100.00
35151;BME280;55720;51.972;4.624;2022-07-29T04:28:36;101441.75;;;14.71;100.00
35151;BME280;55720;51.972;4.624;2022-07-29T04:31:01;101441.84;;;14.62;100.00
35151;BME280;55720;51.972;4.624;2022-07-29T04:33:26;101439.91;;;14.63;100.00
35151;BME280;55720;51.972;4.624;2022-07-29T04:35:52;101454.53;;;14.63;100.00
35151;BME280;55720;51.972;4.624;2022-07-29T04:38:17;101446.34;;;14.67;100.00
35151;BME280;55720;51.972;4.624;2022-07-29T04:40:43;101450.50;;;14.61;100.00
35151;BME280;55720;51.972;4.624;2022-07-29T04:43:08;101451.66;;;14.60;100.00
35151;BME280;55720;51.972;4.624;2022-07-29T04:45:34;101445.09;;;14.64;100.00
35151;BME280;55720;51.972;4.624;2022-07-29T04:47:59;101443.91;;;14.65;100.00
35151;BME280;55720;51.972;4.624;2022-07-29T04:50:24;101437.59;;;14.65;100.00
35151;BME280;55720;51.972;4.624;2022-07-29T04:52:50;101441.88;;;14.74;100.00
35151;BME280;55720;51.972;4.624;2022-07-29T04:55:15;101437.03;;;14.71;100.00
35151;BME280;55720;51.972;4.624;2022-07-29T04:57:40;101444.63;;;14.74;100.00
35151;BME280;55720;51.972;4.624;2022-07-29T05:00:06;101440.34;;;14.77;100.00
35151;BME280;55720;51.972;4.624;2022-07-29T05:02:32;101442.75;;;14.91;100.00
35151;BME280;55720;51.972;4.624;2022-07-29T05:04:57;101447.03;;;15.00;100.00
35151;BME280;55720;51.972;4.624;2022-07-29T05:07:23;101452.31;;;15.17;100.00
35151;BME280;55720;51.972;4.624;2022-07-29T05:09:48;101460.81;;;15.37;100.00
35151;BME280;55720;51.972;4.624;2022-07-29T05:12:14;101462.28;;;15.58;100.00
35151;BME280;55720;51.972;4.624;2022-07-29T05:14:39;101465.25;;;15.65;100.00
35151;BME280;55720;51.972;4.624;2022-07-29T05:17:04;101470.63;;;15.74;100.00
35151;BME280;55720;51.972;4.624;2022-07-29T05:19:30;101474.28;;;15.78;100.00
35151;BME280;55720;51.972;4.624;2022-07-29T05:21:55;101493.56;;;15.74;100.00
35151;BME280;55720;51.972;4.624;2022-07-29T05:24:21;101497.88;;;15.72;100.00
35151;BME280;55720;51.972;4.624;2022-07-29T05:26:46;101511.00;;;15.75;100.00
35151;BME280;55720;51.972;4.624;2022-07-29T05:29:11;101520.72;;;15.97;100.00
35151;BME280;55720;51.972;4.624;2022-07-29T05:31:37;101532.50;;;16.21;100.00
35151;BME280;55720;51.972;4.624;2022-07-29T05:34:02;101549.44;;;16.60;100.00
35151;BME280;55720;51.972;4.624;2022-07-29T05:36:27;101568.16;;;16.94;100.00
35151;BME280;55720;51.972;4.624;2022-07-29T05:38:54;101590.16;;;17.18;100.00
35151;BME280;55720;51.972;4.624;2022-07-29T05:41:19;101611.06;;;17.47;100.00
35151;BME280;55720;51.972;4.624;2022-07-29T05:43:45;101624.78;;;17.56;100.00
35151;BME280;55720;51.972;4.624;2022-07-29T05:46:10;101639.81;;;18.05;100.00
35151;BME280;55720;51.972;4.624;2022-07-29T05:48:36;101643.00;;;18.23;100.00
35151;BME280;55720;51.972;4.624;2022-07-29T05:51:01;101653.69;;;18.40;100.00
35151;BME280;55720;51.972;4.624;2022-07-29T05:53:27;101675.22;;;18.82;100.00
35151;BME280;55720;51.972;4.624;2022-07-29T05:55:52;101729.31;;;19.03;100.00
35151;BME280;55720;51.972;4.624;2022-07-29T05:58:18;101781.91;;;19.28;100.00
35151;BME280;55720;51.972;4.624;2022-07-29T06:00:44;101804.88;;;19.25;100.00
35151;BME280;55720;51.972;4.624;2022-07-29T06:03:09;101828.91;;;19.33;100.00
35151;BME280;55720;51.972;4.624;2022-07-29T06:05:35;101839.78;;;19.18;100.00
35151;BME280;55720;51.972;4.624;2022-07-29T06:08:00;101852.94;;;18.83;100.00
35151;BME280;55720;51.972;4.624;2022-07-29T06:10:26;101854.09;;;18.82;100.00
35151;BME280;55720;51.972;4.624;2022-07-29T06:12:51;101856.53;;;19.03;100.00
35151;BME280;55720;51.972;4.624;2022-07-29T06:15:17;101864.59;;;18.54;100.00
35151;BME280;55720;51.972;4.624;2022-07-29T06:17:42;101866.13;;;18.51;100.00
35151;BME280;55720;51.972;4.624;2022-07-29T06:20:09;101874.53;;;18.39;100.00
35151;BME280;55720;51.972;4.624;2022-07-29T06:22:34;101861.38;;;18.52;100.00
35151;BME280;55720;51.972;4.624;2022-07-29T06:25:01;101862.53;;;18.86;100.00
35151;BME280;55720;51.972;4.624;2022-07-29T06:27:26;101857.22;;;19.54;100.00
35151;BME280;55720;51.972;4.624;2022-07-29T06:29:52;101872.75;;;19.55;100.00
35151;BME280;55720;51.972;4.624;2022-07-29T06:32:17;101876.63;;;19.70;100.00
35151;BME280;55720;51.972;4.624;2022-07-29T06:34:42;101883.00;;;20.35;100.00
35151;BME280;55720;51.972;4.624;2022-07-29T06:37:08;101895.09;;;20.69;100.00
35151;BME280;55720;51.972;4.624;2022-07-29T06:39:37;101905.84;;;20.96;100.00
35151;BME280;55720;51.972;4.624;2022-07-29T06:42:03;101917.22;;;20.84;100.00
35151;BME280;55720;51.972;4.624;2022-07-29T06:44:29;101917.25;;;20.35;100.00
35151;BME280;55720;51.972;4.624;2022-07-29T06:46:55;101914.94;;;19.95;100.00
35151;BME280;55720;51.972;4.624;2022-07-29T06:49:21;101916.88;;;19.34;100.00
35151;BME280;55720;51.972;4.624;2022-07-29T06:51:46;101915.41;;;19.21;100.00
35151;BME280;55720;51.972;4.624;2022-07-29T06:54:12;101920.78;;;18.79;100.00
35151;BME280;55720;51.972;4.624;2022-07-29T06:56:37;101923.16;;;18.61;100.00
35151;BME280;55720;51.972;4.624;2022-07-29T06:59:07;101913.94;;;19.27;100.00
35151;BME280;55720;51.972;4.624;2022-07-29T07:01:33;101904.38;;;23.04;100.00
35151;BME280;55720;51.972;4.624;2022-07-29T07:03:59;101881.59;;;27.12;100.00
35151;BME280;55720;51.972;4.624;2022-07-29T07:06:25;101842.00;;;28.53;100.00
35151;BME280;55720;51.972;4.624;2022-07-29T07:08:50;101827.78;;;29.91;100.00
35151;BME280;55720;51.972;4.624;2022-07-29T07:11:16;101815.28;;;28.77;85.10
35151;BME280;55720;51.972;4.624;2022-07-29T07:13:41;101843.78;;;27.93;99.50
35151;BME280;55720;51.972;4.624;2022-07-29T07:16:06;101852.63;;;27.68;100.00
35151;BME280;55720;51.972;4.624;2022-07-29T07:18:32;101861.22;;;26.97;100.00
35151;BME280;55720;51.972;4.624;2022-07-29T07:20:58;101853.09;;;27.03;100.00
35151;BME280;55720;51.972;4.624;2022-07-29T07:23:23;101858.66;;;26.31;100.00
35151;BME280;55720;51.972;4.624;2022-07-29T07:25:49;101876.16;;;26.02;100.00
35151;BME280;55720;51.972;4.624;2022-07-29T07:28:15;101893.59;;;25.82;100.00
35151;BME280;55720;51.972;4.624;2022-07-29T07:30:40;101862.34;;;28.21;100.00
35151;BME280;55720;51.972;4.624;2022-07-29T07:33:05;101829.16;;;30.47;96.24
35151;BME280;55720;51.972;4.624;2022-07-29T07:35:31;101807.91;;;31.51;76.08
35151;BME280;55720;51.972;4.624;2022-07-29T07:37:56;101832.25;;;30.37;76.67
35151;BME280;55720;51.972;4.624;2022-07-29T07:40:22;101831.22;;;30.14;78.52
35151;BME280;55720;51.972;4.624;2022-07-29T07:42:47;101843.06;;;29.93;82.72
35151;BME280;55720;51.972;4.624;2022-07-29T07:45:13;101837.63;;;29.30;80.69
35151;BME280;55720;51.972;4.624;2022-07-29T07:47:39;101860.38;;;28.18;89.69
35151;BME280;55720;51.972;4.624;2022-07-29T07:50:06;101877.34;;;26.52;100.00
35151;BME280;55720;51.972;4.624;2022-07-29T07:52:33;101852.56;;;28.49;100.00
35151;BME280;55720;51.972;4.624;2022-07-29T07:54:59;101843.63;;;29.13;87.74
35151;BME280;55720;51.972;4.624;2022-07-29T07:57:24;101857.31;;;28.05;93.50
35151;BME280;55720;51.972;4.624;2022-07-29T07:59:50;101854.53;;;28.02;95.40
35151;BME280;55720;51.972;4.624;2022-07-29T08:02:15;101886.91;;;26.21;100.00
35151;BME280;55720;51.972;4.624;2022-07-29T08:04:41;101893.34;;;25.56;100.00
35151;BME280;55720;51.972;4.624;2022-07-29T08:07:07;101892.59;;;26.07;100.00
35151;BME280;55720;51.972;4.624;2022-07-29T08:09:34;101859.84;;;27.73;100.00
35151;BME280;55720;51.972;4.624;2022-07-29T08:11:59;101839.13;;;28.76;100.00
35151;BME280;55720;51.972;4.624;2022-07-29T08:14:29;101811.31;;;30.02;81.83
35151;BME280;55720;51.972;4.624;2022-07-29T08:16:54;101795.50;;;30.78;76.67
35151;BME280;55720;51.972;4.624;2022-07-29T08:19:19;101789.53;;;31.68;66.70
35151;BME280;55720;51.972;4.624;2022-07-29T08:21:45;101800.75;;;31.59;64.50
35151;BME280;55720;51.972;4.624;2022-07-29T08:24:10;101775.38;;;32.71;61.27
35151;BME280;55720;51.972;4.624;2022-07-29T08:26:54;101767.78;;;33.51;55.58
35151;BME280;55720;51.972;4.624;2022-07-29T08:29:19;101789.50;;;32.40;56.33
35151;BME280;55720;51.972;4.624;2022-07-29T08:31:45;101781.97;;;32.90;57.73
35151;BME280;55720;51.972;4.624;2022-07-29T08:34:10;101793.56;;;32.05;58.69
35151;BME280;55720;51.972;4.624;2022-07-29T08:36:37;101806.97;;;31.41;57.80
35151;BME280;55720;51.972;4.624;2022-07-29T08:39:02;101813.25;;;30.66;59.06
35151;BME280;55720;51.972;4.624;2022-07-29T08:41:28;101806.97;;;31.92;60.58
35151;BME280;55720;51.972;4.624;2022-07-29T08:43:54;101794.16;;;32.68;57.45
35151;BME280;55720;51.972;4.624;2022-07-29T08:46:20;101799.50;;;31.85;54.95
35151;BME280;55720;51.972;4.624;2022-07-29T08:48:46;101800.53;;;32.38;59.19
35151;BME280;55720;51.972;4.624;2022-07-29T08:51:14;101791.31;;;31.49;57.69
35151;BME280;55720;51.972;4.624;2022-07-29T08:53:41;101820.34;;;30.87;63.32
35151;BME280;55720;51.972;4.624;2022-07-29T08:56:11;101798.19;;;32.24;60.46
35151;BME280;55720;51.972;4.624;2022-07-29T08:58:36;101805.59;;;31.33;59.69
35151;BME280;55720;51.972;4.624;2022-07-29T09:01:02;101794.63;;;32.33;55.62
35151;BME280;55720;51.972;4.624;2022-07-29T09:03:32;101774.88;;;33.47;53.79
35151;BME280;55720;51.972;4.624;2022-07-29T09:06:00;101782.66;;;33.55;52.58
35151;BME280;55720;51.972;4.624;2022-07-29T09:08:27;101769.19;;;33.96;51.67
35151;BME280;55720;51.972;4.624;2022-07-29T09:10:54;101762.59;;;34.17;49.53
35151;BME280;55720;51.972;4.624;2022-07-29T09:13:24;101770.69;;;33.30;50.47
35151;BME280;55720;51.972;4.624;2022-07-29T09:15:50;101799.06;;;31.61;54.58
35151;BME280;55720;51.972;4.624;2022-07-29T09:18:41;101829.75;;;29.58;62.60
35151;BME280;55720;51.972;4.624;2022-07-29T09:21:09;101831.94;;;29.50;64.53
35151;BME280;55720;51.972;4.624;2022-07-29T09:26:38;101803.91;;;31.23;63.25
35151;BME280;55720;51.972;4.624;2022-07-29T09:29:18;101833.75;;;29.76;70.53
35151;BME280;55720;51.972;4.624;2022-07-29T09:31:50;101829.69;;;30.26;71.24
35151;BME280;55720;51.972;4.624;2022-07-29T09:34:22;101808.34;;;30.95;64.16
35151;BME280;55720;51.972;4.624;2022-07-29T09:36:48;101817.28;;;31.10;66.80
35151;BME280;55720;51.972;4.624;2022-07-29T09:39:16;101806.53;;;30.89;62.31
35151;BME280;55720;51.972;4.624;2022-07-29T09:41:53;101819.16;;;30.43;64.68
35151;BME280;55720;51.972;4.624;2022-07-29T09:44:19;101831.56;;;29.84;64.78
35151;BME280;55720;51.972;4.624;2022-07-29T09:46:58;101806.97;;;30.58;66.04
35151;BME280;55720;51.972;4.624;2022-07-29T09:49:24;101818.72;;;31.02;66.48
35151;BME280;55720;51.972;4.624;2022-07-29T09:52:19;101819.25;;;30.23;65.97
35151;BME280;55720;51.972;4.624;2022-07-29T09:54:45;101823.78;;;29.88;66.59
35151;BME280;55720;51.972;4.624;2022-07-29T09:57:23;101839.84;;;29.19;72.99
35151;BME280;55720;51.972;4.624;2022-07-29T10:00:09;101832.66;;;29.70;72.97
35151;BME280;55720;51.972;4.624;2022-07-29T10:02:36;101845.59;;;28.76;79.08
35151;BME280;55720;51.972;4.624;2022-07-29T10:05:04;101854.09;;;28.53;92.68
35151;BME280;55720;51.972;4.624;2022-07-29T10:07:51;101845.03;;;29.05;87.19
35151;BME280;55720;51.972;4.624;2022-07-29T10:10:20;101835.03;;;29.92;84.62
35151;BME280;55720;51.972;4.624;2022-07-29T10:13:10;101838.56;;;29.24;80.48
35151;BME280;55720;51.972;4.624;2022-07-29T10:15:37;101837.41;;;28.82;81.36
35151;BME280;55720;51.972;4.624;2022-07-29T10:18:10;101847.09;;;28.38;88.33
35151;BME280;55720;51.972;4.624;2022-07-29T10:20:36;101854.72;;;28.18;99.20
35151;BME280;55720;51.972;4.624;2022-07-29T10:23:02;101862.44;;;27.60;100.00
35151;BME280;55720;51.972;4.624;2022-07-29T10:25:27;101865.84;;;27.48;99.46
35151;BME280;55720;51.972;4.624;2022-07-29T10:27:53;101868.38;;;27.05;100.00
35151;BME280;55720;51.972;4.624;2022-07-29T10:30:21;101873.88;;;26.78;100.00
35151;BME280;55720;51.972;4.624;2022-07-29T10:38:30;101875.56;;;26.72;100.00
35151;BME280;55720;51.972;4.624;2022-07-29T10:41:06;101878.22;;;25.94;100.00
35151;BME280;55720;51.972;4.624;2022-07-29T10:44:01;101890.03;;;25.75;100.00
35151;BME280;55720;51.972;4.624;2022-07-29T10:46:27;101882.53;;;26.09;100.00
35151;BME280;55720;51.972;4.624;2022-07-29T10:52:06;101889.59;;;25.73;100.00
35151;BME280;55720;51.972;4.624;2022-07-29T10:59:40;101864.81;;;25.57;100.00
35151;BME280;55720;51.972;4.624;2022-07-29T11:07:23;101868.94;;;25.28;100.00
35151;BME280;55720;51.972;4.624;2022-07-29T11:15:07;101872.06;;;25.44;100.00
35151;BME280;55720;51.972;4.624;2022-07-29T11:28:50;101867.81;;;25.87;100.00
35151;BME280;55720;51.972;4.624;2022-07-29T11:31:20;101846.63;;;26.27;100.00
35151;BME280;55720;51.972;4.624;2022-07-29T11:39:35;101850.94;;;26.39;100.00
35151;BME280;55720;51.972;4.624;2022-07-29T11:42:37;101850.09;;;26.42;100.00
35151;BME280;55720;51.972;4.624;2022-07-29T11:45:05;101842.72;;;26.11;100.00
35151;BME280;55720;51.972;4.624;2022-07-29T11:47:35;101846.81;;;25.99;100.00
35151;BME280;55720;51.972;4.624;2022-07-29T11:50:03;101847.47;;;26.21;100.00
35151;BME280;55720;51.972;4.624;2022-07-29T11:52:34;101862.78;;;26.13;100.00
35151;BME280;55720;51.972;4.624;2022-07-29T11:55:05;101846.09;;;26.80;100.00
35151;BME280;55720;51.972;4.624;2022-07-29T11:57:33;101830.03;;;27.45;100.00
35151;BME280;55720;51.972;4.624;2022-07-29T12:00:00;101819.81;;;27.81;89.24
35151;BME280;55720;51.972;4.624;2022-07-29T12:02:38;101817.50;;;27.16;83.46
35151;BME280;55720;51.972;4.624;2022-07-29T12:05:03;101826.50;;;27.04;84.65
35151;BME280;55720;51.972;4.624;2022-07-29T12:07:33;101829.25;;;26.73;88.34
35151;BME280;55720;51.972;4.624;2022-07-29T12:09:59;101827.06;;;26.91;85.37
35151;BME280;55720;51.972;4.624;2022-07-29T12:12:24;101819.28;;;26.65;82.66
35151;BME280;55720;51.972;4.624;2022-07-29T12:14:50;101824.97;;;26.21;79.73
35151;BME280;55720;51.972;4.624;2022-07-29T12:17:29;101821.94;;;26.79;79.66
35151;BME280;55720;51.972;4.624;2022-07-29T12:19:56;101833.94;;;26.90;81.52
35151;BME280;55720;51.972;4.624;2022-07-29T12:25:05;101842.06;;;26.44;88.87
35151;BME280;55720;51.972;4.624;2022-07-29T12:27:31;101837.44;;;26.16;90.95
35151;BME280;55720;51.972;4.624;2022-07-29T12:30:03;101832.25;;;26.56;92.81
35151;BME280;55720;51.972;4.624;2022-07-29T12:32:37;101837.78;;;27.04;93.41
35151;BME280;55720;51.972;4.624;2022-07-29T12:35:09;101830.91;;;27.35;89.75
35151;BME280;55720;51.972;4.624;2022-07-29T12:37:36;101829.53;;;27.50;85.63
35151;BME280;55720;51.972;4.624;2022-07-29T12:40:04;101831.09;;;27.81;89.00
35151;BME280;55720;51.972;4.624;2022-07-29T12:42:30;101817.91;;;28.45;81.20
35151;BME280;55720;51.972;4.624;2022-07-29T12:44:56;101813.13;;;27.95;74.70
35151;BME280;55720;51.972;4.624;2022-07-29T12:47:21;101829.31;;;27.64;79.13
35151;BME280;55720;51.972;4.624;2022-07-29T12:49:48;101827.47;;;27.54;82.53
35151;BME280;55720;51.972;4.624;2022-07-29T12:52:32;101829.31;;;27.64;83.14
35151;BME280;55720;51.972;4.624;2022-07-29T12:54:57;101817.84;;;28.02;79.04
35151;BME280;55720;51.972;4.624;2022-07-29T12:57:23;101817.50;;;27.46;77.04
35151;BME280;55720;51.972;4.624;2022-07-29T13:00:07;101823.66;;;27.37;80.07
35151;BME280;55720;51.972;4.624;2022-07-29T13:02:34;101831.63;;;27.42;83.46
35151;BME280;55720;51.972;4.624;2022-07-29T13:05:01;101828.81;;;27.42;82.58
35151;BME280;55720;51.972;4.624;2022-07-29T13:07:29;101810.66;;;27.74;78.68
35151;BME280;55720;51.972;4.624;2022-07-29T13:10:10;101805.69;;;28.05;76.16
35151;BME280;55720;51.972;4.624;2022-07-29T13:12:36;101808.47;;;27.85;72.50
35151;BME280;55720;51.972;4.624;2022-07-29T13:15:12;101813.72;;;28.10;75.42
35151;BME280;55720;51.972;4.624;2022-07-29T13:17:42;101810.06;;;28.32;75.99
35151;BME280;55720;51.972;4.624;2022-07-29T13:20:09;101803.66;;;28.52;72.25
35151;BME280;55720;51.972;4.624;2022-07-29T13:22:38;101795.38;;;29.04;68.11
35151;BME280;55720;51.972;4.624;2022-07-29T13:25:04;101795.41;;;29.20;69.33
35151;BME280;55720;51.972;4.624;2022-07-29T13:27:33;101816.97;;;28.74;71.24
35151;BME280;55720;51.972;4.624;2022-07-29T13:30:00;101818.78;;;27.68;73.35
35151;BME280;55720;51.972;4.624;2022-07-29T13:32:28;101813.72;;;27.83;78.27
35151;BME280;55720;51.972;4.624;2022-07-29T13:34:55;101820.84;;;27.91;79.80
35151;BME280;55720;51.972;4.624;2022-07-29T13:37:21;101818.44;;;28.40;79.92
35151;BME280;55720;51.972;4.624;2022-07-29T13:39:46;101811.22;;;28.98;77.10
35151;BME280;55720;51.972;4.624;2022-07-29T13:42:12;101810.91;;;29.51;76.39
35151;BME280;55720;51.972;4.624;2022-07-29T13:44:39;101799.75;;;29.24;73.48